Time;durP1;ratioP1;P1;durP2;ratioP2;P2;SDS_P1;SDS_P2;PMS_P1;PMS_P2;Temp;Humidity;BMP_temperature;BMP_pressure;BME280_temperature;BME280_humidity;BME280_pressure;Samples;Min_cycle;Max_cycle;Signal;HPM_P1;HPM_P2
2023/01/19 00:02:11;;;;;;;64.38;60.53;;;14.80;99.90;;;;;;5228183;28;20037;-71
2023/01/19 00:04:41;;;;;;;369.83;350.83;;;14.80;99.90;;;;;;5228211;28;20032;-75
2023/01/19 00:07:12;;;;;;;71.32;66.60;;;14.80;99.90;;;;;;5228082;28;20033;-75
2023/01/19 00:09:43;;;;;;;21.63;19.98;;;14.80;99.90;;;;;;5227877;28;20025;-76
2023/01/19 00:12:14;;;;;;;20.50;18.83;;;14.80;99.90;;;;;;5228027;28;20061;-74
2023/01/19 00:14:44;;;;;;;22.83;20.88;;;14.90;99.90;;;;;;5227865;28;20082;-73
2023/01/19 00:17:15;;;;;;;115.85;108.38;;;14.70;99.90;;;;;;5227908;28;20365;-72
2023/01/19 00:19:46;;;;;;;27.50;25.65;;;15.00;99.90;;;;;;5226707;28;20052;-72
2023/01/19 00:22:17;;;;;;;12.68;8.75;;;14.90;99.90;;;;;;5228139;28;20078;-70
2023/01/19 00:24:49;;;;;;;11.55;10.35;;;14.90;99.90;;;;;;5228051;28;20028;-75
2023/01/19 00:27:20;;;;;;;40.50;37.90;;;14.90;99.90;;;;;;5227777;28;20083;-70
2023/01/19 00:29:50;;;;;;;95.30;89.80;;;14.70;99.90;;;;;;5227745;28;20021;-70
2023/01/19 00:32:21;;;;;;;20.75;19.05;;;14.90;99.90;;;;;;5227515;28;20032;-73
2023/01/19 00:34:52;;;;;;;8.35;7.72;;;14.90;99.90;;;;;;5227618;28;20032;-75
2023/01/19 00:37:23;;;;;;;16.65;14.73;;;14.90;99.90;;;;;;5227530;28;20025;-75
2023/01/19 00:39:54;;;;;;;27.25;25.40;;;14.80;99.90;;;;;;5227425;28;20025;-76
2023/01/19 00:42:39;;;;;;;7.72;5.85;;;14.90;99.90;;;;;;5227447;28;20028;-73
2023/01/19 00:45:17;;;;;;;6.93;4.03;;;14.90;99.90;;;;;;5227159;28;20037;-72
2023/01/19 00:47:55;;;;;;;9.68;5.18;;;14.80;99.90;;;;;;5227330;28;20055;-72
2023/01/19 00:50:28;;;;;;;9.75;5.40;;;14.80;99.90;;;;;;5227372;28;20025;-76
2023/01/19 00:53:00;;;;;;;30.38;28.30;;;14.80;99.90;;;;;;5227281;28;20028;-77
2023/01/19 00:55:32;;;;;;;37.47;34.83;;;14.80;99.90;;;;;;5227366;28;20021;-72
2023/01/19 00:58:03;;;;;;;9.75;6.70;;;14.80;99.90;;;;;;5227279;28;20032;-74
2023/01/19 01:00:34;;;;;;;10.90;9.20;;;14.80;99.90;;;;;;5227257;28;20033;-72
2023/01/19 01:03:05;;;;;;;12.73;11.43;;;14.70;99.90;;;;;;5227118;28;20043;-72
2023/01/19 01:05:40;;;;;;;6.70;5.72;;;14.90;99.90;;;;;;5227105;28;20021;-75
2023/01/19 01:08:11;;;;;;;9.32;5.28;;;14.70;99.90;;;;;;5226913;28;20504;-76
2023/01/19 01:10:42;;;;;;;10.57;9.68;;;14.90;99.90;;;;;;5227027;28;20025;-77
2023/01/19 01:13:13;;;;;;;13.50;12.50;;;14.80;99.90;;;;;;5226844;28;20818;-74
2023/01/19 01:15:43;;;;;;;8.93;8.07;;;14.90;99.90;;;;;;5226717;28;20049;-75
2023/01/19 01:18:14;;;;;;;18.63;17.13;;;14.90;99.90;;;;;;5226891;28;20025;-72
2023/01/19 01:20:45;;;;;;;45.15;42.30;;;15.00;99.90;;;;;;5226818;28;20041;-72
2023/01/19 01:23:21;;;;;;;10.98;9.93;;;15.00;99.90;;;;;;5224786;28;20013;-76
2023/01/19 01:25:52;;;;;;;7.00;4.10;;;14.90;99.90;;;;;;5226726;28;20475;-76
2023/01/19 01:28:23;;;;;;;12.65;4.25;;;15.00;99.90;;;;;;5226534;28;20036;-77
2023/01/19 01:30:55;;;;;;;32.22;29.98;;;15.00;99.90;;;;;;5226675;28;20025;-73
2023/01/19 01:33:26;;;;;;;93.05;87.25;;;15.00;99.90;;;;;;5226495;28;20087;-77
2023/01/19 01:35:56;;;;;;;27.17;25.30;;;15.10;99.90;;;;;;5226478;28;20464;-76
2023/01/19 01:38:27;;;;;;;42.60;39.53;;;14.90;99.90;;;;;;5226569;28;20545;-76
2023/01/19 01:40:58;;;;;;;44.20;41.15;;;14.90;99.90;;;;;;5226597;28;20029;-74
2023/01/19 01:43:44;;;;;;;252.18;236.05;;;14.90;99.90;;;;;;5226452;28;20056;-72
2023/01/19 01:46:16;;;;;;;21.67;19.90;;;15.00;99.90;;;;;;5226360;28;20056;-71
2023/01/19 01:49:12;;;;;;;23.23;21.27;;;14.90;99.90;;;;;;5226384;28;20091;-73
2023/01/19 01:51:47;;;;;;;20.27;18.38;;;14.70;99.90;;;;;;5226471;28;20075;-73
2023/01/19 01:54:23;;;;;;;10.32;9.25;;;14.80;99.90;;;;;;5226236;28;20542;-76
2023/01/19 01:56:58;;;;;;;17.48;14.45;;;14.80;99.90;;;;;;5226247;28;20033;-74
2023/01/19 01:59:37;;;;;;;27.23;25.42;;;14.70;99.90;;;;;;5226334;28;20021;-75
2023/01/19 02:05:20;;;;;;;10.48;5.45;;;14.70;99.90;;;;;;5226142;28;20110;-74
2023/01/19 02:13:42;;;;;;;22.83;20.98;;;14.70;99.90;;;;;;5226118;28;20029;-75
2023/01/19 02:16:15;;;;;;;17.02;15.23;;;14.70;99.90;;;;;;5225913;28;20522;-77
2023/01/19 02:18:46;;;;;;;8.30;7.38;;;14.70;99.90;;;;;;5225888;28;20033;-76
2023/01/19 02:21:34;;;;;;;23.10;21.40;;;14.70;99.90;;;;;;5225932;28;20024;-74
2023/01/19 02:24:06;;;;;;;57.78;53.85;;;14.70;99.90;;;;;;5225857;28;20032;-73
2023/01/19 02:26:40;;;;;;;9.38;6.32;;;14.60;99.90;;;;;;5224586;28;20079;-75
2023/01/19 02:29:15;;;;;;;31.75;29.30;;;14.60;99.90;;;;;;5224518;28;20057;-74
2023/01/19 02:31:46;;;;;;;99.47;93.55;;;14.70;99.90;;;;;;5225941;28;20458;-77
2023/01/19 02:34:19;;;;;;;55.85;52.47;;;14.70;99.90;;;;;;5227660;28;20112;-74
2023/01/19 02:36:50;;;;;;;46.90;43.78;;;14.60;99.90;;;;;;5230210;28;20037;-73
2023/01/19 02:39:30;;;;;;;8.23;7.45;;;14.60;99.90;;;;;;5230009;28;20465;-71
2023/01/19 02:42:16;;;;;;;25.58;23.42;;;14.60;99.90;;;;;;5229916;28;20029;-73
2023/01/19 02:44:49;;;;;;;12.90;11.80;;;14.50;99.90;;;;;;5229677;28;20029;-70
2023/01/19 02:47:20;;;;;;;19.20;17.40;;;14.60;99.90;;;;;;5229514;28;20057;-72
2023/01/19 02:49:58;;;;;;;20.83;19.35;;;14.40;99.90;;;;;;5229687;28;20430;-72
2023/01/19 02:52:29;;;;;;;25.73;23.92;;;14.50;99.90;;;;;;5229624;28;20025;-72
2023/01/19 02:55:03;;;;;;;26.25;24.40;;;14.50;99.90;;;;;;5229438;28;20021;-72
2023/01/19 02:57:42;;;;;;;20.17;18.40;;;14.50;99.90;;;;;;5229553;28;20112;-76
2023/01/19 03:00:31;;;;;;;14.35;13.00;;;14.50;99.90;;;;;;5229682;28;20021;-76
2023/01/19 03:03:19;;;;;;;8.48;4.00;;;14.50;99.90;;;;;;5229751;28;20025;-74
2023/01/19 03:06:02;;;;;;;7.95;5.43;;;14.30;99.90;;;;;;5229323;28;20036;-72
2023/01/19 03:08:45;;;;;;;24.52;22.35;;;14.40;99.90;;;;;;5229497;28;20124;-74
2023/01/19 03:11:16;;;;;;;15.43;14.00;;;14.50;99.90;;;;;;5229273;28;20036;-73
2023/01/19 03:14:00;;;;;;;92.20;86.47;;;14.40;99.90;;;;;;5227763;28;20568;-76
2023/01/19 03:16:44;;;;;;;51.13;47.97;;;14.40;99.90;;;;;;5229097;28;20102;-76
2023/01/19 03:19:30;;;;;;;53.78;50.30;;;14.40;99.90;;;;;;5229147;28;20033;-74
2023/01/19 03:22:09;;;;;;;26.98;24.70;;;14.40;99.90;;;;;;5229293;28;20033;-75
2023/01/19 03:24:43;;;;;;;43.05;40.08;;;14.40;99.90;;;;;;5228046;28;20385;-71
2023/01/19 03:27:27;;;;;;;72.78;68.50;;;14.40;99.90;;;;;;5229052;28;20112;-74
2023/01/19 03:30:06;;;;;;;14.48;13.13;;;14.50;99.90;;;;;;5229139;28;20025;-77
2023/01/19 03:32:43;;;;;;;54.88;51.33;;;14.40;99.90;;;;;;5229455;28;20357;-75
2023/01/19 03:35:18;;;;;;;46.72;43.28;;;14.30;99.90;;;;;;5229373;28;20017;-74
2023/01/19 03:37:53;;;;;;;25.02;22.67;;;14.40;99.90;;;;;;5229251;28;20024;-73
2023/01/19 03:40:29;;;;;;;8.95;6.97;;;14.40;99.90;;;;;;5229090;28;20100;-72
2023/01/19 03:43:01;;;;;;;15.05;13.80;;;14.40;99.90;;;;;;5229580;28;20032;-70
2023/01/19 03:45:32;;;;;;;22.52;20.70;;;14.50;99.90;;;;;;5228543;28;20049;-74
2023/01/19 03:48:05;;;;;;;24.25;22.73;;;14.50;99.90;;;;;;5228840;28;20480;-74
2023/01/19 03:50:36;;;;;;;8.18;7.38;;;14.50;99.90;;;;;;5228636;28;20460;-70
2023/01/19 03:53:15;;;;;;;11.30;8.45;;;14.40;99.90;;;;;;5228355;28;20086;-73
2023/01/19 03:55:49;;;;;;;22.90;16.58;;;14.40;99.90;;;;;;5228407;28;20476;-71
2023/01/19 03:58:21;;;;;;;23.95;22.20;;;14.40;99.90;;;;;;5228325;28;20085;-72
2023/01/19 04:00:52;;;;;;;24.55;22.30;;;14.30;99.90;;;;;;5228363;28;20139;-70
2023/01/19 04:03:23;;;;;;;13.48;9.70;;;14.20;99.90;;;;;;5228179;28;20033;-72
2023/01/19 04:05:55;;;;;;;11.50;5.90;;;14.30;99.90;;;;;;5228239;28;20034;-74
2023/01/19 04:08:26;;;;;;;10.00;6.43;;;14.30;99.90;;;;;;5228047;28;20037;-73
2023/01/19 04:10:57;;;;;;;16.83;15.32;;;14.20;99.90;;;;;;5228151;28;20025;-76
2023/01/19 04:13:29;;;;;;;11.57;8.32;;;14.30;99.90;;;;;;5228039;28;20472;-76
2023/01/19 04:16:01;;;;;;;14.05;9.60;;;14.30;99.90;;;;;;5226555;28;20029;-73
2023/01/19 04:18:33;;;;;;;15.18;10.07;;;14.30;99.90;;;;;;5228030;28;20113;-76
2023/01/19 04:21:06;;;;;;;10.85;5.75;;;14.20;99.90;;;;;;5226937;28;20021;-74
2023/01/19 04:23:37;;;;;;;19.92;18.10;;;14.20;99.90;;;;;;5228030;28;20464;-73
2023/01/19 04:26:08;;;;;;;66.43;61.85;;;14.30;99.90;;;;;;5226511;28;20223;-73
2023/01/19 04:28:38;;;;;;;30.95;28.38;;;14.30;99.90;;;;;;5228017;28;20024;-71
2023/01/19 04:31:09;;;;;;;24.63;22.77;;;14.30;99.90;;;;;;5227803;28;20489;-70
2023/01/19 04:33:40;;;;;;;10.15;6.63;;;14.20;99.90;;;;;;5227578;28;20021;-71
2023/01/19 04:36:11;;;;;;;10.60;7.72;;;14.20;99.90;;;;;;5227714;28;20032;-72
2023/01/19 04:38:42;;;;;;;10.77;9.77;;;14.10;99.90;;;;;;5227478;28;20021;-73
2023/01/19 04:41:13;;;;;;;10.40;6.40;;;14.10;99.90;;;;;;5227731;28;20147;-73
2023/01/19 04:43:44;;;;;;;10.55;6.97;;;14.10;99.90;;;;;;5227848;28;20033;-74
2023/01/19 04:46:14;;;;;;;10.32;8.57;;;14.10;99.90;;;;;;5227380;28;20436;-73
2023/01/19 04:48:45;;;;;;;10.85;6.93;;;14.00;99.90;;;;;;5227842;28;20040;-72
2023/01/19 04:51:16;;;;;;;20.90;19.38;;;14.10;99.90;;;;;;5227688;28;20024;-74
2023/01/19 04:53:47;;;;;;;12.27;6.78;;;14.10;99.90;;;;;;5227353;28;20033;-71
2023/01/19 04:56:17;;;;;;;11.70;5.72;;;14.10;99.90;;;;;;5226703;28;20366;-74
2023/01/19 04:58:48;;;;;;;15.90;14.55;;;14.10;99.90;;;;;;5227060;28;20021;-73
2023/01/19 05:01:19;;;;;;;15.68;14.27;;;14.10;99.90;;;;;;5227181;28;20116;-73
2023/01/19 05:03:50;;;;;;;39.70;37.03;;;14.00;99.90;;;;;;5227024;28;20071;-72
2023/01/19 05:06:21;;;;;;;39.67;36.83;;;14.20;99.90;;;;;;5227011;28;20025;-72
2023/01/19 05:08:52;;;;;;;42.58;39.85;;;14.20;99.90;;;;;;5226883;28;20052;-76
2023/01/19 05:11:23;;;;;;;49.40;46.38;;;14.30;99.90;;;;;;5226967;28;20096;-75
2023/01/19 05:13:54;;;;;;;10.18;8.32;;;14.30;99.90;;;;;;5226775;28;20032;-76
2023/01/19 05:16:25;;;;;;;67.32;63.42;;;14.30;99.90;;;;;;5226633;28;20090;-72
2023/01/19 05:18:55;;;;;;;50.55;47.45;;;14.40;99.90;;;;;;5226935;28;20040;-71
2023/01/19 05:21:27;;;;;;;13.65;12.43;;;14.30;99.90;;;;;;5225728;28;20073;-72
2023/01/19 05:23:58;;;;;;;5.80;4.38;;;14.30;99.90;;;;;;5226808;28;20044;-72
2023/01/19 05:26:29;;;;;;;5.25;4.45;;;14.30;99.90;;;;;;5226640;28;20028;-77
2023/01/19 05:28:59;;;;;;;13.75;10.95;;;14.20;99.90;;;;;;5226678;28;20029;-74
2023/01/19 05:31:30;;;;;;;7.82;5.22;;;14.30;99.90;;;;;;5226726;28;20029;-73
2023/01/19 05:34:01;;;;;;;38.55;35.97;;;14.20;99.90;;;;;;5226647;28;20473;-73
2023/01/19 05:36:32;;;;;;;91.80;86.70;;;14.30;99.90;;;;;;5226576;28;20480;-78
2023/01/19 05:39:03;;;;;;;24.27;22.73;;;14.30;99.90;;;;;;5225329;28;20021;-77
2023/01/19 05:41:34;;;;;;;41.55;39.10;;;14.30;99.90;;;;;;5225274;28;20033;-73
2023/01/19 05:44:05;;;;;;;16.85;15.68;;;14.40;99.90;;;;;;5226512;28;20048;-75
2023/01/19 05:46:36;;;;;;;55.70;52.53;;;14.40;99.90;;;;;;5226082;28;20088;-77
2023/01/19 05:49:07;;;;;;;57.78;54.22;;;14.40;99.90;;;;;;5226865;28;20036;-74
2023/01/19 05:51:39;;;;;;;18.15;16.45;;;14.40;99.90;;;;;;5226338;28;20021;-76
2023/01/19 05:54:13;;;;;;;13.73;9.35;;;14.30;99.90;;;;;;5226467;28;20025;-75
2023/01/19 05:56:44;;;;;;;18.27;17.08;;;14.30;99.90;;;;;;5226564;28;20021;-77
2023/01/19 05:59:20;;;;;;;5.53;4.05;;;14.40;99.90;;;;;;5226342;28;20029;-74
2023/01/19 06:01:51;;;;;;;14.35;12.00;;;14.50;99.90;;;;;;5225031;28;20021;-77
2023/01/19 06:04:22;;;;;;;69.07;64.50;;;14.40;99.90;;;;;;5226041;28;20048;-76
2023/01/19 06:06:53;;;;;;;33.65;31.58;;;14.40;99.90;;;;;;5225913;28;20421;-77
2023/01/19 06:09:24;;;;;;;47.00;43.95;;;14.40;99.90;;;;;;5225662;28;20040;-78
2023/01/19 06:11:56;;;;;;;55.55;52.42;;;14.50;99.90;;;;;;5225869;28;20029;-74
2023/01/19 06:14:27;;;;;;;72.75;68.30;;;14.40;99.90;;;;;;5225747;28;20025;-72
2023/01/19 06:16:58;;;;;;;197.95;187.20;;;14.50;99.90;;;;;;5225781;28;20023;-77
2023/01/19 06:19:29;;;;;;;188.02;177.65;;;14.40;99.90;;;;;;5225801;28;20025;-76
2023/01/19 06:22:00;;;;;;;116.05;109.57;;;14.50;99.90;;;;;;5225759;28;20428;-73
2023/01/19 06:24:31;;;;;;;86.80;81.57;;;14.50;99.90;;;;;;5225844;28;20021;-73
2023/01/19 06:27:02;;;;;;;79.90;75.20;;;14.60;99.90;;;;;;5225761;28;20033;-73
2023/01/19 06:29:33;;;;;;;18.52;17.17;;;14.60;99.90;;;;;;5225761;28;20369;-73
2023/01/19 06:32:04;;;;;;;44.40;41.38;;;14.50;99.90;;;;;;5225744;28;20025;-77
2023/01/19 06:34:35;;;;;;;69.15;65.38;;;14.60;99.90;;;;;;5225635;28;20051;-72
2023/01/19 06:37:06;;;;;;;32.53;30.27;;;14.50;99.90;;;;;;5225717;28;20017;-76
2023/01/19 06:39:39;;;;;;;21.55;20.05;;;14.40;99.90;;;;;;5225657;28;20519;-76
2023/01/19 06:42:11;;;;;;;15.00;14.00;;;14.50;99.90;;;;;;5225884;28;20057;-72
2023/01/19 06:44:46;;;;;;;12.90;10.45;;;14.40;99.90;;;;;;5225861;28;20025;-77
2023/01/19 06:47:16;;;;;;;11.07;9.95;;;14.50;99.90;;;;;;5225648;28;20041;-78
2023/01/19 06:49:48;;;;;;;6.32;5.65;;;14.60;99.90;;;;;;5225800;28;20092;-79
2023/01/19 06:52:19;;;;;;;8.50;6.93;;;14.50;99.90;;;;;;5225464;28;20368;-78
2023/01/19 06:54:50;;;;;;;11.35;10.48;;;14.60;99.90;;;;;;5225530;28;20051;-72
2023/01/19 06:57:20;;;;;;;32.85;30.50;;;14.70;99.90;;;;;;5225700;28;20021;-73
2023/01/19 06:59:51;;;;;;;325.83;308.60;;;14.90;99.90;;;;;;5225581;28;20079;-73
2023/01/19 07:02:22;;;;;;;130.68;123.65;;;14.90;99.90;;;;;;5225802;28;20025;-76
2023/01/19 07:04:53;;;;;;;34.05;31.90;;;15.10;99.90;;;;;;5225507;28;20361;-78
2023/01/19 07:07:24;;;;;;;116.68;110.05;;;15.30;99.90;;;;;;5224317;28;20436;-77
2023/01/19 07:09:55;;;;;;;41.38;38.75;;;15.30;99.90;;;;;;5225528;28;20116;-74
2023/01/19 07:12:26;;;;;;;320.33;302.77;;;15.30;99.90;;;;;;5225411;28;20108;-76
2023/01/19 07:14:57;;;;;;;49.63;46.63;;;15.20;99.90;;;;;;5225195;28;20036;-78
2023/01/19 07:17:28;;;;;;;48.60;44.83;;;15.30;99.90;;;;;;5225304;28;20035;-77
2023/01/19 07:19:58;;;;;;;63.15;59.30;;;15.40;99.90;;;;;;5226257;28;20020;-77
2023/01/19 07:22:29;;;;;;;40.63;38.03;;;15.50;99.90;;;;;;5229129;28;20044;-77
2023/01/19 07:25:00;;;;;;;31.35;28.50;;;15.70;99.90;;;;;;5229149;28;20090;-73
2023/01/19 07:27:31;;;;;;;29.08;27.33;;;15.80;99.90;;;;;;5229011;28;20120;-77
2023/01/19 07:30:03;;;;;;;31.50;29.45;;;15.70;99.90;;;;;;5229106;28;20017;-76
2023/01/19 07:32:34;;;;;;;50.72;46.97;;;15.80;99.90;;;;;;5228936;28;20029;-78
2023/01/19 07:35:05;;;;;;;34.90;32.63;;;15.80;99.90;;;;;;5228812;28;20023;-72
2023/01/19 07:37:36;;;;;;;117.97;111.47;;;15.60;99.90;;;;;;5228894;28;20100;-77
2023/01/19 07:40:08;;;;;;;21.20;19.65;;;15.70;99.90;;;;;;5227543;28;20408;-77
2023/01/19 07:42:39;;;;;;;40.60;38.20;;;15.60;99.90;;;;;;5228777;28;20025;-77
2023/01/19 07:45:10;;;;;;;37.47;34.83;;;15.70;99.90;;;;;;5228543;28;20069;-74
2023/01/19 07:47:47;;;;;;;32.75;30.00;;;15.90;99.90;;;;;;5228585;28;20477;-77
2023/01/19 07:50:23;;;;;;;47.30;44.17;;;16.00;99.90;;;;;;5228646;28;20802;-78
2023/01/19 07:52:55;;;;;;;81.93;77.32;;;16.10;99.90;;;;;;5228586;28;20017;-73
2023/01/19 07:55:26;;;;;;;200.73;189.80;;;16.10;99.90;;;;;;5228477;28;20021;-78
2023/01/19 07:57:56;;;;;;;20.98;19.42;;;16.20;99.90;;;;;;5228558;28;20096;-78
2023/01/19 08:00:27;;;;;;;25.85;23.42;;;16.20;99.90;;;;;;5227200;28;20033;-78
2023/01/19 08:03:00;;;;;;;266.30;252.13;;;16.40;99.90;;;;;;5228423;28;20056;-78
2023/01/19 08:05:32;;;;;;;41.22;38.47;;;16.40;99.90;;;;;;5228335;28;20441;-78
2023/01/19 08:08:04;;;;;;;52.47;49.00;;;16.40;99.90;;;;;;5227019;28;20036;-79
2023/01/19 08:10:35;;;;;;;205.23;194.38;;;16.40;99.90;;;;;;5228581;28;20021;-74
2023/01/19 08:13:05;;;;;;;124.72;117.75;;;16.60;99.90;;;;;;5228418;28;20035;-73
2023/01/19 08:15:36;;;;;;;30.73;28.30;;;16.70;99.90;;;;;;5228233;28;20040;-77
2023/01/19 08:18:10;;;;;;;33.35;31.02;;;16.60;99.90;;;;;;5228116;28;20104;-73
2023/01/19 08:20:41;;;;;;;28.40;26.38;;;16.80;99.90;;;;;;5227913;28;20025;-72
2023/01/19 08:23:12;;;;;;;6.90;5.95;;;16.70;99.90;;;;;;5227977;28;20029;-77
2023/01/19 08:25:44;;;;;;;14.48;13.32;;;17.10;99.90;;;;;;5227913;28;20493;-77
2023/01/19 08:28:16;;;;;;;11.00;4.32;;;16.90;99.90;;;;;;5227704;28;20055;-76
2023/01/19 08:30:52;;;;;;;62.10;58.67;;;17.10;99.90;;;;;;5227756;28;20029;-73
2023/01/19 08:33:24;;;;;;;6.88;4.75;;;17.20;99.90;;;;;;5227768;28;20012;-77
2023/01/19 08:35:54;;;;;;;5.95;4.03;;;17.10;99.90;;;;;;5227637;28;20051;-74
2023/01/19 08:38:25;;;;;;;4.57;4.22;;;17.20;99.90;;;;;;5227508;28;20044;-73
2023/01/19 08:40:56;;;;;;;26.38;24.35;;;17.00;99.90;;;;;;5227597;28;20025;-78
2023/01/19 08:43:28;;;;;;;10.85;9.90;;;17.00;99.90;;;;;;5227515;28;20017;-76
2023/01/19 08:45:58;;;;;;;7.97;6.32;;;16.90;99.90;;;;;;5227312;28;20053;-73
2023/01/19 08:48:30;;;;;;;16.13;14.88;;;17.20;99.90;;;;;;5226041;28;20033;-74
2023/01/19 08:51:01;;;;;;;9.20;8.43;;;17.10;99.90;;;;;;5227429;28;20067;-77
2023/01/19 08:53:31;;;;;;;13.20;12.00;;;17.20;99.90;;;;;;5227296;28;20025;-78
2023/01/19 08:56:02;;;;;;;16.65;15.18;;;17.30;99.90;;;;;;5225938;28;20032;-78
2023/01/19 08:58:33;;;;;;;13.77;12.63;;;17.20;99.90;;;;;;5227143;28;20067;-75
2023/01/19 09:01:06;;;;;;;12.82;6.25;;;17.20;99.90;;;;;;5227334;28;20528;-73
2023/01/19 09:03:37;;;;;;;11.40;9.50;;;17.30;99.90;;;;;;5227269;28;20021;-79
2023/01/19 09:06:10;;;;;;;107.80;101.65;;;17.60;99.90;;;;;;5227375;28;20087;-78
2023/01/19 09:08:41;;;;;;;37.40;35.08;;;17.10;99.90;;;;;;5227116;28;20094;-73
2023/01/19 09:11:14;;;;;;;7.25;5.75;;;17.20;99.90;;;;;;5227010;28;20017;-72
2023/01/19 09:13:44;;;;;;;44.05;41.10;;;17.40;99.90;;;;;;5227419;28;20109;-75
2023/01/19 09:16:15;;;;;;;6.05;5.38;;;17.30;99.90;;;;;;5227343;28;20116;-73
2023/01/19 09:18:46;;;;;;;13.27;8.65;;;17.60;99.90;;;;;;5226891;28;20021;-79
2023/01/19 09:21:18;;;;;;;37.42;34.60;;;17.50;99.90;;;;;;5226941;28;20045;-75
2023/01/19 09:23:48;;;;;;;9.77;8.95;;;17.50;99.90;;;;;;5226883;28;20067;-76
2023/01/19 09:26:21;;;;;;;6.15;5.60;;;17.70;99.90;;;;;;5226633;28;20449;-73
2023/01/19 09:28:53;;;;;;;5.25;3.80;;;17.80;99.90;;;;;;5226590;28;20111;-75
2023/01/19 09:31:24;;;;;;;5.03;3.70;;;17.90;99.90;;;;;;5226606;28;20025;-76
2023/01/19 09:33:54;;;;;;;5.75;4.72;;;17.80;99.90;;;;;;5226565;28;20056;-74
2023/01/19 09:36:25;;;;;;;6.65;6.03;;;17.80;99.90;;;;;;5226553;28;20027;-74
2023/01/19 09:38:56;;;;;;;45.03;42.00;;;18.10;99.90;;;;;;5226518;28;20502;-78
2023/01/19 09:41:28;;;;;;;7.40;6.53;;;17.80;99.90;;;;;;5225148;28;20393;-74
2023/01/19 09:43:59;;;;;;;5.85;3.53;;;18.00;99.90;;;;;;5226011;28;20601;-77
2023/01/19 09:46:43;;;;;;;6.82;3.40;;;18.20;99.90;;;;;;5225864;28;20048;-72
2023/01/19 09:49:20;;;;;;;24.83;23.35;;;18.20;99.90;;;;;;5226338;28;20041;-76
2023/01/19 09:51:51;;;;;;;6.95;3.10;;;18.20;99.90;;;;;;5226302;28;20060;-73
2023/01/19 09:54:36;;;;;;;12.88;11.52;;;18.60;99.90;;;;;;5226199;28;20522;-78
2023/01/19 09:57:11;;;;;;;8.50;7.78;;;18.30;99.90;;;;;;5226497;28;20032;-78
2023/01/19 09:59:46;;;;;;;7.93;4.13;;;18.50;99.90;;;;;;5226157;28;20115;-78
2023/01/19 10:02:29;;;;;;;15.48;14.25;;;18.90;99.90;;;;;;5226123;28;20032;-78
2023/01/19 10:05:01;;;;;;;6.13;3.25;;;18.30;99.90;;;;;;5226122;28;20512;-72
2023/01/19 10:07:52;;;;;;;9.07;3.03;;;18.60;99.90;;;;;;5225884;28;20044;-78
2023/01/19 10:10:27;;;;;;;4.65;3.15;;;18.90;99.90;;;;;;5226039;28;20025;-78
2023/01/19 10:13:07;;;;;;;6.88;4.30;;;18.50;99.90;;;;;;5225977;28;20021;-79
2023/01/19 10:15:53;;;;;;;;;;;18.50;99.90;;;;;;5226556;28;20029;-76
2023/01/19 10:18:37;;;;;;;21.23;19.60;;;17.90;99.90;;;;;;5226421;28;19919;-75
2023/01/19 10:21:26;;;;;;;74.82;70.60;;;18.20;99.90;;;;;;5226349;28;20017;-75
2023/01/19 10:24:04;;;;;;;6.77;4.63;;;18.30;99.90;;;;;;5226243;28;20036;-79
2023/01/19 10:26:44;;;;;;;17.65;16.25;;;18.90;99.90;;;;;;5226239;28;20039;-73
2023/01/19 10:29:15;;;;;;;6.05;3.88;;;18.70;99.90;;;;;;5226428;28;20129;-73
2023/01/19 10:31:47;;;;;;;60.35;56.15;;;18.50;99.90;;;;;;5226038;28;20049;-73
2023/01/19 10:34:18;;;;;;;5.28;4.50;;;18.60;99.90;;;;;;5224596;28;20127;-79
2023/01/19 10:36:53;;;;;;;5.38;3.33;;;18.60;99.90;;;;;;5225920;28;20104;-79
2023/01/19 10:39:24;;;;;;;42.92;40.35;;;18.90;99.90;;;;;;5225652;28;20032;-77
2023/01/19 10:41:59;;;;;;;9.57;5.25;;;18.80;99.90;;;;;;5225657;28;20404;-72
2023/01/19 10:44:36;;;;;;;9.75;8.25;;;18.60;99.90;;;;;;5224229;28;20533;-73
2023/01/19 10:47:15;;;;;;;30.65;28.50;;;18.40;99.90;;;;;;5225486;28;20076;-75
2023/01/19 10:49:47;;;;;;;9.77;8.90;;;18.70;99.90;;;;;;5225690;28;20124;-78
2023/01/19 10:52:28;;;;;;;7.28;4.38;;;19.30;99.90;;;;;;5225558;28;20025;-73
2023/01/19 10:55:05;;;;;;;7.53;6.13;;;19.00;99.90;;;;;;5225308;28;20476;-78
2023/01/19 10:57:42;;;;;;;7.03;3.75;;;19.40;99.90;;;;;;5230087;28;20090;-78
2023/01/19 11:00:38;;;;;;;3.92;3.50;;;19.60;99.90;;;;;;5229645;28;20128;-75
2023/01/19 11:03:29;;;;;;;4.63;2.95;;;19.60;99.90;;;;;;5229542;28;20032;-78
2023/01/19 11:06:22;;;;;;;5.53;4.15;;;19.60;99.90;;;;;;5228308;28;20029;-74
2023/01/19 11:09:14;;;;;;;5.53;3.97;;;19.20;99.90;;;;;;5229418;28;20098;-77
2023/01/19 11:11:50;;;;;;;3.92;3.25;;;19.10;99.90;;;;;;5229489;28;20028;-73
2023/01/19 11:14:23;;;;;;;8.80;5.75;;;19.10;99.90;;;;;;5229327;28;20107;-79
2023/01/19 11:16:56;;;;;;;5.50;3.55;;;19.20;99.90;;;;;;5229297;28;20037;-76
2023/01/19 11:19:30;;;;;;;6.78;4.13;;;19.50;99.90;;;;;;5229330;28;20033;-74
2023/01/19 11:22:20;;;;;;;5.90;3.90;;;19.00;99.90;;;;;;5229302;28;20020;-76
2023/01/19 11:24:51;;;;;;;8.10;6.25;;;19.10;99.90;;;;;;5229376;28;20021;-73
2023/01/19 11:27:22;;;;;;;33.25;31.10;;;19.00;99.90;;;;;;5228224;28;20036;-78
2023/01/19 11:30:04;;;;;;;7.38;4.10;;;19.00;99.90;;;;;;5229519;28;20036;-76
2023/01/19 11:32:35;;;;;;;6.32;4.28;;;18.80;99.90;;;;;;5229290;28;20044;-73
2023/01/19 11:35:39;;;;;;;11.77;10.75;;;18.90;99.90;;;;;;5228749;28;20022;-73
2023/01/19 11:38:19;;;;;;;29.17;27.38;;;18.70;99.90;;;;;;5228518;28;20040;-73
2023/01/19 11:40:57;;;;;;;20.25;18.63;;;18.90;99.90;;;;;;5228957;28;20082;-74
2023/01/19 11:43:29;;;;;;;15.43;14.18;;;19.00;99.90;;;;;;5228864;28;20029;-78
2023/01/19 11:46:00;;;;;;;25.38;23.73;;;18.80;99.90;;;;;;5228796;28;20053;-73
2023/01/19 11:49:03;;;;;;;23.10;21.27;;;19.00;99.90;;;;;;5228659;28;20445;-75
2023/01/19 11:51:43;;;;;;;6.88;5.28;;;18.90;99.90;;;;;;5228076;28;20134;-78
2023/01/19 11:54:22;;;;;;;4.07;2.90;;;19.30;99.90;;;;;;5228695;28;20039;-78
2023/01/19 11:56:57;;;;;;;7.63;4.57;;;19.60;99.90;;;;;;5227566;28;20031;-73
2023/01/19 11:59:28;;;;;;;7.65;3.38;;;19.50;99.90;;;;;;5228739;28;20104;-71
2023/01/19 12:02:01;;;;;;;7.72;3.92;;;19.50;99.90;;;;;;5228725;28;20520;-76
2023/01/19 12:04:38;;;;;;;8.63;4.32;;;19.30;99.90;;;;;;5228351;28;20075;-72
2023/01/19 12:07:11;;;;;;;8.55;5.75;;;19.10;99.90;;;;;;5227730;28;20036;-76
2023/01/19 12:09:47;;;;;;;10.57;9.63;;;19.30;99.90;;;;;;5227959;28;20086;-72
2023/01/19 12:12:35;;;;;;;9.88;7.72;;;19.00;99.90;;;;;;5228224;28;20108;-74
2023/01/19 12:15:31;;;;;;;24.20;8.50;;;19.40;99.90;;;;;;5228051;28;20361;-75
2023/01/19 12:18:05;;;;;;;15.20;13.98;;;19.70;99.90;;;;;;5228066;28;20033;-75
2023/01/19 12:20:39;;;;;;;18.52;14.85;;;19.00;99.90;;;;;;5227934;28;20025;-78
2023/01/19 12:23:09;;;;;;;44.97;41.67;;;19.40;99.90;;;;;;5228025;28;20692;-74
2023/01/19 12:25:46;;;;;;;16.38;15.00;;;19.20;99.90;;;;;;5227959;28;20033;-72
2023/01/19 12:28:21;;;;;;;4.97;3.33;;;19.30;99.90;;;;;;5227935;28;20041;-78
2023/01/19 12:30:52;;;;;;;6.93;3.78;;;19.60;99.90;;;;;;5227899;28;20473;-77
2023/01/19 12:33:38;;;;;;;11.48;3.78;;;19.30;99.90;;;;;;5227904;28;20033;-78
2023/01/19 12:36:32;;;;;;;7.75;7.05;;;19.80;99.90;;;;;;5228036;28;20104;-78
2023/01/19 12:39:13;;;;;;;58.08;54.88;;;19.50;99.90;;;;;;5227646;28;20017;-77
2023/01/19 12:41:45;;;;;;;6.05;5.32;;;19.30;99.90;;;;;;5227880;28;20121;-75
2023/01/19 12:44:22;;;;;;;15.20;13.95;;;19.90;99.90;;;;;;5227583;28;20385;-76
2023/01/19 12:47:02;;;;;;;5.50;3.65;;;19.60;99.90;;;;;;5227176;28;20128;-79
2023/01/19 12:49:49;;;;;;;21.63;20.10;;;20.00;99.90;;;;;;5227515;28;20025;-77
2023/01/19 12:52:26;;;;;;;8.23;4.47;;;19.70;99.90;;;;;;5227320;28;20113;-74
2023/01/19 12:55:04;;;;;;;4.05;3.30;;;20.90;99.90;;;;;;5227407;28;20060;-74
2023/01/19 12:57:53;;;;;;;5.00;3.22;;;20.40;99.90;;;;;;5227396;28;20037;-73
2023/01/19 13:00:24;;;;;;;6.50;3.35;;;20.10;99.90;;;;;;5227343;28;20052;-74
2023/01/19 13:02:57;;;;;;;5.68;3.60;;;19.90;99.90;;;;;;5225936;28;20068;-73
2023/01/19 13:05:31;;;;;;;8.43;6.25;;;19.90;99.90;;;;;;5227145;28;20021;-77
2023/01/19 13:08:03;;;;;;;5.50;5.00;;;19.60;99.90;;;;;;5226994;28;20091;-73
2023/01/19 13:10:59;;;;;;;10.10;7.25;;;19.50;99.90;;;;;;5227041;28;20032;-77
2023/01/19 13:13:43;;;;;;;30.70;28.80;;;19.60;99.90;;;;;;5227019;28;20067;-74
2023/01/19 13:16:17;;;;;;;13.27;5.65;;;19.20;99.90;;;;;;5226894;28;20039;-76
2023/01/19 13:19:00;;;;;;;8.43;3.90;;;19.50;99.90;;;;;;5226204;28;20091;-74